sensor_id;sensor_type;location;lat;lon;timestamp;P1;durP1;ratioP1;P2;durP2;ratioP2
85771;SDS011;76212;56.844;41.394;2024-03-23T00:54:33;24.92;;;12.43;;
85771;SDS011;76212;56.844;41.394;2024-03-23T00:56:59;33.03;;;14.85;;
85771;SDS011;76212;56.844;41.394;2024-03-23T00:59:25;26.73;;;12.70;;
85771;SDS011;76212;56.844;41.394;2024-03-23T01:01:54;24.48;;;12.32;;
85771;SDS011;76212;56.844;41.394;2024-03-23T01:04:21;32.67;;;14.68;;
85771;SDS011;76212;56.844;41.394;2024-03-23T01:06:47;26.00;;;13.63;;
85771;SDS011;76212;56.844;41.394;2024-03-23T01:09:13;32.03;;;14.80;;
85771;SDS011;76212;56.844;41.394;2024-03-23T01:11:40;27.65;;;13.93;;
85771;SDS011;76212;56.844;41.394;2024-03-23T01:14:06;24.35;;;13.48;;
85771;SDS011;76212;56.844;41.394;2024-03-23T01:16:33;26.58;;;13.52;;
85771;SDS011;76212;56.844;41.394;2024-03-23T01:18:59;29.73;;;13.30;;
85771;SDS011;76212;56.844;41.394;2024-03-23T01:21:25;28.80;;;12.43;;
85771;SDS011;76212;56.844;41.394;2024-03-23T01:23:52;28.45;;;13.40;;
85771;SDS011;76212;56.844;41.394;2024-03-23T01:26:18;30.17;;;14.52;;
85771;SDS011;76212;56.844;41.394;2024-03-23T01:28:44;30.88;;;13.77;;
85771;SDS011;76212;56.844;41.394;2024-03-23T01:31:10;28.83;;;13.68;;
85771;SDS011;76212;56.844;41.394;2024-03-23T01:33:36;29.25;;;13.85;;
85771;SDS011;76212;56.844;41.394;2024-03-23T01:36:03;32.88;;;13.57;;
85771;SDS011;76212;56.844;41.394;2024-03-23T01:38:30;32.35;;;14.07;;
85771;SDS011;76212;56.844;41.394;2024-03-23T01:40:56;34.78;;;14.65;;
85771;SDS011;76212;56.844;41.394;2024-03-23T01:43:23;28.48;;;14.20;;
85771;SDS011;76212;56.844;41.394;2024-03-23T01:45:50;32.60;;;14.95;;
85771;SDS011;76212;56.844;41.394;2024-03-23T01:48:21;37.13;;;16.00;;
85771;SDS011;76212;56.844;41.394;2024-03-23T01:50:48;43.95;;;18.05;;
85771;SDS011;76212;56.844;41.394;2024-03-23T01:53:14;37.65;;;15.80;;
85771;SDS011;76212;56.844;41.394;2024-03-23T01:55:43;33.85;;;16.35;;
85771;SDS011;76212;56.844;41.394;2024-03-23T01:58:09;29.98;;;13.77;;
85771;SDS011;76212;56.844;41.394;2024-03-23T02:00:36;30.65;;;14.27;;
85771;SDS011;76212;56.844;41.394;2024-03-23T02:03:03;33.22;;;14.40;;
85771;SDS011;76212;56.844;41.394;2024-03-23T02:05:48;31.80;;;14.07;;
85771;SDS011;76212;56.844;41.394;2024-03-23T02:08:16;37.85;;;16.98;;
85771;SDS011;76212;56.844;41.394;2024-03-23T02:10:43;37.35;;;15.43;;
85771;SDS011;76212;56.844;41.394;2024-03-23T02:13:10;36.17;;;15.68;;
85771;SDS011;76212;56.844;41.394;2024-03-23T02:15:36;34.97;;;15.23;;
85771;SDS011;76212;56.844;41.394;2024-03-23T02:18:04;33.28;;;14.65;;
85771;SDS011;76212;56.844;41.394;2024-03-23T02:20:31;35.08;;;14.85;;
85771;SDS011;76212;56.844;41.394;2024-03-23T02:22:57;42.22;;;16.38;;
85771;SDS011;76212;56.844;41.394;2024-03-23T02:25:23;36.20;;;14.35;;
85771;SDS011;76212;56.844;41.394;2024-03-23T02:27:50;34.78;;;16.05;;
85771;SDS011;76212;56.844;41.394;2024-03-23T02:30:16;35.50;;;16.70;;
85771;SDS011;76212;56.844;41.394;2024-03-23T02:32:42;41.13;;;16.70;;
85771;SDS011;76212;56.844;41.394;2024-03-23T02:35:08;32.35;;;16.23;;
85771;SDS011;76212;56.844;41.394;2024-03-23T02:37:35;38.20;;;16.73;;
85771;SDS011;76212;56.844;41.394;2024-03-23T02:40:01;38.45;;;16.90;;
85771;SDS011;76212;56.844;41.394;2024-03-23T02:42:27;38.15;;;16.83;;
85771;SDS011;76212;56.844;41.394;2024-03-23T02:44:54;38.22;;;16.20;;
85771;SDS011;76212;56.844;41.394;2024-03-23T02:47:20;34.67;;;15.38;;
85771;SDS011;76212;56.844;41.394;2024-03-23T02:49:46;38.13;;;16.92;;
85771;SDS011;76212;56.844;41.394;2024-03-23T02:52:12;37.55;;;16.73;;
85771;SDS011;76212;56.844;41.394;2024-03-23T02:54:39;35.45;;;15.88;;
85771;SDS011;76212;56.844;41.394;2024-03-23T02:57:05;42.10;;;17.10;;
85771;SDS011;76212;56.844;41.394;2024-03-23T02:59:31;35.60;;;15.40;;
85771;SDS011;76212;56.844;41.394;2024-03-23T03:01:57;42.25;;;17.05;;
85771;SDS011;76212;56.844;41.394;2024-03-23T03:04:25;36.35;;;15.65;;
85771;SDS011;76212;56.844;41.394;2024-03-23T03:06:52;32.33;;;14.68;;
85771;SDS011;76212;56.844;41.394;2024-03-23T03:09:18;42.90;;;18.40;;
85771;SDS011;76212;56.844;41.394;2024-03-23T03:11:44;36.63;;;16.10;;
85771;SDS011;76212;56.844;41.394;2024-03-23T03:14:11;40.17;;;18.67;;
85771;SDS011;76212;56.844;41.394;2024-03-23T03:16:37;45.55;;;18.58;;
85771;SDS011;76212;56.844;41.394;2024-03-23T03:19:03;38.20;;;15.82;;
85771;SDS011;76212;56.844;41.394;2024-03-23T03:21:29;41.53;;;16.30;;
85771;SDS011;76212;56.844;41.394;2024-03-23T03:23:56;40.63;;;17.55;;
85771;SDS011;76212;56.844;41.394;2024-03-23T03:26:22;40.30;;;18.00;;
85771;SDS011;76212;56.844;41.394;2024-03-23T03:28:49;38.15;;;17.10;;
85771;SDS011;76212;56.844;41.394;2024-03-23T03:31:16;48.67;;;18.70;;
85771;SDS011;76212;56.844;41.394;2024-03-23T03:33:43;40.10;;;17.85;;
85771;SDS011;76212;56.844;41.394;2024-03-23T03:36:09;41.03;;;16.83;;
85771;SDS011;76212;56.844;41.394;2024-03-23T03:38:36;44.35;;;19.05;;
85771;SDS011;76212;56.844;41.394;2024-03-23T03:41:02;39.38;;;17.50;;
85771;SDS011;76212;56.844;41.394;2024-03-23T03:43:29;42.17;;;18.20;;
85771;SDS011;76212;56.844;41.394;2024-03-23T03:45:56;45.97;;;17.90;;
85771;SDS011;76212;56.844;41.394;2024-03-23T03:48:23;41.38;;;16.70;;
85771;SDS011;76212;56.844;41.394;2024-03-23T03:50:50;47.97;;;19.55;;
85771;SDS011;76212;56.844;41.394;2024-03-23T03:53:16;44.50;;;17.38;;
85771;SDS011;76212;56.844;41.394;2024-03-23T03:55:42;42.67;;;18.27;;
85771;SDS011;76212;56.844;41.394;2024-03-23T03:58:08;39.15;;;18.13;;
85771;SDS011;76212;56.844;41.394;2024-03-23T04:00:35;47.20;;;18.10;;
85771;SDS011;76212;56.844;41.394;2024-03-23T04:03:01;42.17;;;17.50;;
85771;SDS011;76212;56.844;41.394;2024-03-23T04:05:27;45.28;;;19.90;;
85771;SDS011;76212;56.844;41.394;2024-03-23T04:07:54;46.47;;;20.13;;
85771;SDS011;76212;56.844;41.394;2024-03-23T04:10:20;44.45;;;18.48;;
85771;SDS011;76212;56.844;41.394;2024-03-23T04:12:47;50.97;;;20.00;;
85771;SDS011;76212;56.844;41.394;2024-03-23T04:15:14;46.53;;;21.08;;
85771;SDS011;76212;56.844;41.394;2024-03-23T04:17:40;50.63;;;20.80;;
85771;SDS011;76212;56.844;41.394;2024-03-23T04:20:08;43.28;;;18.75;;
85771;SDS011;76212;56.844;41.394;2024-03-23T04:22:37;49.35;;;20.75;;
85771;SDS011;76212;56.844;41.394;2024-03-23T04:25:03;49.88;;;20.17;;
85771;SDS011;76212;56.844;41.394;2024-03-23T04:27:32;46.75;;;19.90;;
85771;SDS011;76212;56.844;41.394;2024-03-23T04:29:59;55.00;;;20.13;;
85771;SDS011;76212;56.844;41.394;2024-03-23T04:32:27;55.20;;;19.95;;
85771;SDS011;76212;56.844;41.394;2024-03-23T04:34:54;53.67;;;21.40;;
85771;SDS011;76212;56.844;41.394;2024-03-23T04:37:20;50.65;;;22.13;;
85771;SDS011;76212;56.844;41.394;2024-03-23T04:39:47;54.60;;;21.80;;
85771;SDS011;76212;56.844;41.394;2024-03-23T04:42:14;46.25;;;19.05;;
85771;SDS011;76212;56.844;41.394;2024-03-23T04:44:42;50.53;;;19.33;;
85771;SDS011;76212;56.844;41.394;2024-03-23T04:47:08;53.20;;;21.10;;
85771;SDS011;76212;56.844;41.394;2024-03-23T04:49:38;58.72;;;22.33;;
85771;SDS011;76212;56.844;41.394;2024-03-23T04:52:05;47.95;;;19.92;;
85771;SDS011;76212;56.844;41.394;2024-03-23T04:54:31;50.90;;;20.58;;
85771;SDS011;76212;56.844;41.394;2024-03-23T04:57:00;54.78;;;21.00;;
85771;SDS011;76212;56.844;41.394;2024-03-23T04:59:27;60.33;;;23.13;;
85771;SDS011;76212;56.844;41.394;2024-03-23T05:01:53;52.60;;;21.88;;
85771;SDS011;76212;56.844;41.394;2024-03-23T05:04:19;52.30;;;19.30;;
85771;SDS011;76212;56.844;41.394;2024-03-23T05:06:45;60.38;;;22.15;;
85771;SDS011;76212;56.844;41.394;2024-03-23T05:09:12;52.78;;;21.05;;
85771;SDS011;76212;56.844;41.394;2024-03-23T05:11:38;55.80;;;21.75;;
85771;SDS011;76212;56.844;41.394;2024-03-23T05:14:05;51.80;;;21.75;;
85771;SDS011;76212;56.844;41.394;2024-03-23T05:16:31;44.25;;;21.00;;
85771;SDS011;76212;56.844;41.394;2024-03-23T05:18:57;54.85;;;22.10;;
85771;SDS011;76212;56.844;41.394;2024-03-23T05:21:24;48.53;;;20.05;;
85771;SDS011;76212;56.844;41.394;2024-03-23T05:23:50;58.92;;;22.52;;
85771;SDS011;76212;56.844;41.394;2024-03-23T05:26:17;61.85;;;22.25;;
85771;SDS011;76212;56.844;41.394;2024-03-23T05:28:43;51.60;;;20.55;;
85771;SDS011;76212;56.844;41.394;2024-03-23T05:31:09;49.95;;;21.80;;
85771;SDS011;76212;56.844;41.394;2024-03-23T05:33:36;53.75;;;23.15;;
85771;SDS011;76212;56.844;41.394;2024-03-23T05:36:05;53.65;;;21.00;;
85771;SDS011;76212;56.844;41.394;2024-03-23T05:38:34;57.95;;;21.98;;
85771;SDS011;76212;56.844;41.394;2024-03-23T05:41:01;55.15;;;20.80;;
85771;SDS011;76212;56.844;41.394;2024-03-23T05:43:27;55.05;;;24.40;;
85771;SDS011;76212;56.844;41.394;2024-03-23T05:45:58;54.92;;;23.00;;
85771;SDS011;76212;56.844;41.394;2024-03-23T05:48:26;56.92;;;23.08;;
85771;SDS011;76212;56.844;41.394;2024-03-23T05:50:52;56.38;;;23.38;;
85771;SDS011;76212;56.844;41.394;2024-03-23T05:53:19;66.28;;;25.05;;
85771;SDS011;76212;56.844;41.394;2024-03-23T05:55:49;58.30;;;21.77;;
85771;SDS011;76212;56.844;41.394;2024-03-23T05:58:16;59.97;;;22.63;;
85771;SDS011;76212;56.844;41.394;2024-03-23T06:00:43;52.38;;;20.95;;
85771;SDS011;76212;56.844;41.394;2024-03-23T06:03:10;54.72;;;22.10;;
85771;SDS011;76212;56.844;41.394;2024-03-23T06:05:37;47.53;;;21.08;;
85771;SDS011;76212;56.844;41.394;2024-03-23T06:08:04;51.22;;;21.52;;
85771;SDS011;76212;56.844;41.394;2024-03-23T06:10:31;52.63;;;20.92;;
85771;SDS011;76212;56.844;41.394;2024-03-23T06:13:00;57.35;;;22.73;;
85771;SDS011;76212;56.844;41.394;2024-03-23T06:15:26;54.80;;;22.25;;
85771;SDS011;76212;56.844;41.394;2024-03-23T06:17:53;51.13;;;21.23;;
85771;SDS011;76212;56.844;41.394;2024-03-23T06:20:19;60.33;;;21.77;;
85771;SDS011;76212;56.844;41.394;2024-03-23T06:22:45;53.47;;;23.25;;
85771;SDS011;76212;56.844;41.394;2024-03-23T06:25:11;59.40;;;21.95;;
85771;SDS011;76212;56.844;41.394;2024-03-23T06:27:38;47.90;;;20.88;;
85771;SDS011;76212;56.844;41.394;2024-03-23T06:30:05;55.63;;;21.63;;
85771;SDS011;76212;56.844;41.394;2024-03-23T06:32:32;52.45;;;21.98;;
85771;SDS011;76212;56.844;41.394;2024-03-23T06:34:58;54.65;;;21.23;;
85771;SDS011;76212;56.844;41.394;2024-03-23T06:37:25;50.20;;;21.08;;
85771;SDS011;76212;56.844;41.394;2024-03-23T06:39:51;50.10;;;19.95;;
85771;SDS011;76212;56.844;41.394;2024-03-23T06:42:18;63.33;;;22.58;;
85771;SDS011;76212;56.844;41.394;2024-03-23T06:44:44;48.20;;;20.27;;
85771;SDS011;76212;56.844;41.394;2024-03-23T06:47:10;53.70;;;21.17;;
85771;SDS011;76212;56.844;41.394;2024-03-23T06:49:36;46.00;;;20.55;;
85771;SDS011;76212;56.844;41.394;2024-03-23T06:52:03;57.35;;;22.15;;
85771;SDS011;76212;56.844;41.394;2024-03-23T06:54:29;47.22;;;19.98;;
85771;SDS011;76212;56.844;41.394;2024-03-23T06:56:55;56.40;;;23.27;;
85771;SDS011;76212;56.844;41.394;2024-03-23T06:59:21;51.42;;;21.42;;
85771;SDS011;76212;56.844;41.394;2024-03-23T07:01:48;52.67;;;21.08;;
85771;SDS011;76212;56.844;41.394;2024-03-23T07:04:14;50.78;;;19.42;;
85771;SDS011;76212;56.844;41.394;2024-03-23T07:06:44;53.05;;;23.20;;
85771;SDS011;76212;56.844;41.394;2024-03-23T07:09:11;48.58;;;20.40;;
85771;SDS011;76212;56.844;41.394;2024-03-23T07:11:37;48.60;;;19.73;;
85771;SDS011;76212;56.844;41.394;2024-03-23T07:14:04;47.00;;;20.38;;
85771;SDS011;76212;56.844;41.394;2024-03-23T07:16:30;56.63;;;22.65;;
85771;SDS011;76212;56.844;41.394;2024-03-23T07:18:57;46.35;;;20.48;;
85771;SDS011;76212;56.844;41.394;2024-03-23T07:21:23;50.72;;;22.67;;
85771;SDS011;76212;56.844;41.394;2024-03-23T07:23:49;55.13;;;20.85;;
85771;SDS011;76212;56.844;41.394;2024-03-23T07:26:15;46.80;;;19.52;;
85771;SDS011;76212;56.844;41.394;2024-03-23T07:28:43;119.05;;;52.47;;
85771;SDS011;76212;56.844;41.394;2024-03-23T07:31:10;112.30;;;59.63;;
85771;SDS011;76212;56.844;41.394;2024-03-23T07:33:40;49.47;;;19.83;;
85771;SDS011;76212;56.844;41.394;2024-03-23T07:36:08;46.88;;;19.58;;
85771;SDS011;76212;56.844;41.394;2024-03-23T07:38:35;44.95;;;18.85;;
85771;SDS011;76212;56.844;41.394;2024-03-23T07:43:35;48.83;;;19.92;;
85771;SDS011;76212;56.844;41.394;2024-03-23T07:46:02;43.35;;;18.05;;
85771;SDS011;76212;56.844;41.394;2024-03-23T07:48:29;42.60;;;17.75;;
85771;SDS011;76212;56.844;41.394;2024-03-23T07:51:06;42.65;;;18.45;;
85771;SDS011;76212;56.844;41.394;2024-03-23T07:53:34;60.00;;;19.88;;
85771;SDS011;76212;56.844;41.394;2024-03-23T07:56:03;46.90;;;20.00;;
85771;SDS011;76212;56.844;41.394;2024-03-23T07:58:29;39.28;;;17.30;;
85771;SDS011;76212;56.844;41.394;2024-03-23T08:00:56;48.03;;;18.77;;
85771;SDS011;76212;56.844;41.394;2024-03-23T08:03:29;44.97;;;19.60;;
85771;SDS011;76212;56.844;41.394;2024-03-23T08:05:55;39.55;;;17.98;;
85771;SDS011;76212;56.844;41.394;2024-03-23T08:08:22;37.55;;;16.83;;
85771;SDS011;76212;56.844;41.394;2024-03-23T08:10:49;39.08;;;19.40;;
85771;SDS011;76212;56.844;41.394;2024-03-23T08:13:16;41.03;;;17.77;;
85771;SDS011;76212;56.844;41.394;2024-03-23T08:15:43;41.75;;;17.63;;
85771;SDS011;76212;56.844;41.394;2024-03-23T08:18:11;39.30;;;18.33;;
85771;SDS011;76212;56.844;41.394;2024-03-23T08:20:38;35.78;;;17.02;;
85771;SDS011;76212;56.844;41.394;2024-03-23T08:23:07;40.70;;;17.80;;
85771;SDS011;76212;56.844;41.394;2024-03-23T08:25:34;34.83;;;15.27;;
85771;SDS011;76212;56.844;41.394;2024-03-23T08:28:01;39.53;;;18.77;;
85771;SDS011;76212;56.844;41.394;2024-03-23T08:30:28;42.95;;;16.88;;
85771;SDS011;76212;56.844;41.394;2024-03-23T08:32:54;34.33;;;16.13;;
85771;SDS011;76212;56.844;41.394;2024-03-23T08:35:20;31.77;;;15.27;;
85771;SDS011;76212;56.844;41.394;2024-03-23T08:37:47;39.15;;;17.55;;
85771;SDS011;76212;56.844;41.394;2024-03-23T08:40:13;36.42;;;17.33;;
85771;SDS011;76212;56.844;41.394;2024-03-23T08:42:39;38.00;;;17.80;;
85771;SDS011;76212;56.844;41.394;2024-03-23T08:45:05;37.88;;;17.40;;
85771;SDS011;76212;56.844;41.394;2024-03-23T08:47:36;43.53;;;18.80;;
85771;SDS011;76212;56.844;41.394;2024-03-23T08:50:02;36.95;;;15.93;;
85771;SDS011;76212;56.844;41.394;2024-03-23T08:52:29;31.52;;;15.88;;
85771;SDS011;76212;56.844;41.394;2024-03-23T08:54:55;28.63;;;14.35;;
85771;SDS011;76212;56.844;41.394;2024-03-23T08:57:23;33.22;;;15.25;;
85771;SDS011;76212;56.844;41.394;2024-03-23T08:59:50;34.92;;;16.67;;
85771;SDS011;76212;56.844;41.394;2024-03-23T09:02:17;37.38;;;16.08;;
85771;SDS011;76212;56.844;41.394;2024-03-23T09:04:44;37.72;;;16.50;;
85771;SDS011;76212;56.844;41.394;2024-03-23T09:07:11;38.10;;;18.40;;
85771;SDS011;76212;56.844;41.394;2024-03-23T09:09:38;42.53;;;19.30;;
85771;SDS011;76212;56.844;41.394;2024-03-23T09:12:05;34.03;;;17.80;;
85771;SDS011;76212;56.844;41.394;2024-03-23T09:14:33;36.05;;;16.50;;
85771;SDS011;76212;56.844;41.394;2024-03-23T09:17:00;37.28;;;18.08;;
85771;SDS011;76212;56.844;41.394;2024-03-23T09:19:29;35.42;;;16.83;;
85771;SDS011;76212;56.844;41.394;2024-03-23T09:21:55;31.35;;;15.00;;
85771;SDS011;76212;56.844;41.394;2024-03-23T09:24:22;29.17;;;15.85;;
85771;SDS011;76212;56.844;41.394;2024-03-23T09:26:48;34.67;;;16.50;;
85771;SDS011;76212;56.844;41.394;2024-03-23T09:29:14;35.25;;;16.45;;
85771;SDS011;76212;56.844;41.394;2024-03-23T09:31:40;42.50;;;16.17;;
85771;SDS011;76212;56.844;41.394;2024-03-23T09:34:07;37.75;;;17.05;;
85771;SDS011;76212;56.844;41.394;2024-03-23T09:36:33;26.00;;;13.63;;
85771;SDS011;76212;56.844;41.394;2024-03-23T09:38:59;34.08;;;15.95;;
85771;SDS011;76212;56.844;41.394;2024-03-23T09:41:26;38.25;;;16.23;;
85771;SDS011;76212;56.844;41.394;2024-03-23T09:43:53;37.30;;;19.92;;
85771;SDS011;76212;56.844;41.394;2024-03-23T09:46:19;36.58;;;16.15;;
85771;SDS011;76212;56.844;41.394;2024-03-23T09:48:46;26.60;;;15.20;;
85771;SDS011;76212;56.844;41.394;2024-03-23T09:51:13;34.38;;;15.13;;
85771;SDS011;76212;56.844;41.394;2024-03-23T09:53:39;32.13;;;14.93;;
85771;SDS011;76212;56.844;41.394;2024-03-23T09:56:08;32.00;;;16.30;;
85771;SDS011;76212;56.844;41.394;2024-03-23T09:58:34;27.17;;;13.23;;
85771;SDS011;76212;56.844;41.394;2024-03-23T10:01:01;26.63;;;12.88;;
85771;SDS011;76212;56.844;41.394;2024-03-23T10:03:29;25.02;;;12.93;;
85771;SDS011;76212;56.844;41.394;2024-03-23T10:06:01;26.90;;;13.65;;
85771;SDS011;76212;56.844;41.394;2024-03-23T10:08:28;25.58;;;13.40;;
85771;SDS011;76212;56.844;41.394;2024-03-23T10:10:56;30.92;;;16.98;;
85771;SDS011;76212;56.844;41.394;2024-03-23T10:13:28;28.10;;;15.13;;
85771;SDS011;76212;56.844;41.394;2024-03-23T10:15:59;46.08;;;23.00;;
85771;SDS011;76212;56.844;41.394;2024-03-23T10:18:25;33.63;;;15.32;;
85771;SDS011;76212;56.844;41.394;2024-03-23T10:23:36;40.53;;;21.73;;
85771;SDS011;76212;56.844;41.394;2024-03-23T10:26:19;27.17;;;14.38;;
85771;SDS011;76212;56.844;41.394;2024-03-23T10:28:51;28.33;;;14.57;;
85771;SDS011;76212;56.844;41.394;2024-03-23T10:31:28;25.73;;;14.48;;
85771;SDS011;76212;56.844;41.394;2024-03-23T10:33:55;24.98;;;12.48;;
85771;SDS011;76212;56.844;41.394;2024-03-23T10:36:22;21.02;;;12.35;;
85771;SDS011;76212;56.844;41.394;2024-03-23T10:38:50;26.00;;;13.40;;
85771;SDS011;76212;56.844;41.394;2024-03-23T10:41:18;26.15;;;13.05;;
85771;SDS011;76212;56.844;41.394;2024-03-23T10:43:45;20.52;;;12.45;;
85771;SDS011;76212;56.844;41.394;2024-03-23T10:46:12;27.75;;;15.40;;
85771;SDS011;76212;56.844;41.394;2024-03-23T10:48:39;22.40;;;12.25;;
85771;SDS011;76212;56.844;41.394;2024-03-23T10:51:08;17.52;;;9.32;;
85771;SDS011;76212;56.844;41.394;2024-03-23T10:53:36;30.58;;;16.45;;
85771;SDS011;76212;56.844;41.394;2024-03-23T10:56:05;22.65;;;13.27;;
85771;SDS011;76212;56.844;41.394;2024-03-23T10:58:40;23.23;;;13.50;;
85771;SDS011;76212;56.844;41.394;2024-03-23T11:01:13;23.65;;;13.27;;
85771;SDS011;76212;56.844;41.394;2024-03-23T11:03:41;35.78;;;18.30;;
85771;SDS011;76212;56.844;41.394;2024-03-23T11:06:12;34.67;;;18.15;;
85771;SDS011;76212;56.844;41.394;2024-03-23T11:09:00;22.23;;;12.65;;
85771;SDS011;76212;56.844;41.394;2024-03-23T11:11:26;21.92;;;13.18;;
85771;SDS011;76212;56.844;41.394;2024-03-23T11:13:54;23.83;;;13.55;;
85771;SDS011;76212;56.844;41.394;2024-03-23T11:16:28;21.38;;;12.65;;
85771;SDS011;76212;56.844;41.394;2024-03-23T11:22:04;24.30;;;13.05;;
85771;SDS011;76212;56.844;41.394;2024-03-23T11:24:31;19.17;;;10.88;;
85771;SDS011;76212;56.844;41.394;2024-03-23T11:26:57;20.45;;;11.68;;
85771;SDS011;76212;56.844;41.394;2024-03-23T11:29:26;23.48;;;11.73;;
85771;SDS011;76212;56.844;41.394;2024-03-23T11:31:53;21.50;;;12.07;;
85771;SDS011;76212;56.844;41.394;2024-03-23T11:34:19;19.08;;;10.85;;
85771;SDS011;76212;56.844;41.394;2024-03-23T11:36:46;21.13;;;10.80;;
85771;SDS011;76212;56.844;41.394;2024-03-23T11:39:16;20.88;;;11.25;;
85771;SDS011;76212;56.844;41.394;2024-03-23T11:41:50;17.10;;;10.40;;
85771;SDS011;76212;56.844;41.394;2024-03-23T11:44:23;23.10;;;11.55;;
85771;SDS011;76212;56.844;41.394;2024-03-23T11:46:51;18.55;;;11.15;;
85771;SDS011;76212;56.844;41.394;2024-03-23T11:51:54;20.48;;;12.48;;
85771;SDS011;76212;56.844;41.394;2024-03-23T11:54:25;25.75;;;14.52;;
85771;SDS011;76212;56.844;41.394;2024-03-23T11:57:07;22.15;;;11.90;;
85771;SDS011;76212;56.844;41.394;2024-03-23T11:59:35;16.98;;;10.25;;
85771;SDS011;76212;56.844;41.394;2024-03-23T12:02:07;17.98;;;11.35;;
85771;SDS011;76212;56.844;41.394;2024-03-23T12:04:33;20.25;;;10.80;;
85771;SDS011;76212;56.844;41.394;2024-03-23T12:07:17;17.67;;;11.18;;
85771;SDS011;76212;56.844;41.394;2024-03-23T12:09:46;23.02;;;11.10;;
85771;SDS011;76212;56.844;41.394;2024-03-23T12:12:16;22.30;;;12.75;;
85771;SDS011;76212;56.844;41.394;2024-03-23T12:14:44;23.85;;;13.68;;
85771;SDS011;76212;56.844;41.394;2024-03-23T12:17:14;19.75;;;11.50;;
85771;SDS011;76212;56.844;41.394;2024-03-23T12:19:41;13.63;;;8.00;;
85771;SDS011;76212;56.844;41.394;2024-03-23T12:22:08;22.70;;;13.38;;
85771;SDS011;76212;56.844;41.394;2024-03-23T12:24:35;23.20;;;13.48;;
85771;SDS011;76212;56.844;41.394;2024-03-23T12:27:02;17.58;;;10.18;;
85771;SDS011;76212;56.844;41.394;2024-03-23T12:29:32;17.15;;;9.23;;
85771;SDS011;76212;56.844;41.394;2024-03-23T12:32:01;20.00;;;12.57;;
85771;SDS011;76212;56.844;41.394;2024-03-23T12:34:28;21.55;;;12.32;;
85771;SDS011;76212;56.844;41.394;2024-03-23T12:36:56;21.58;;;12.40;;
85771;SDS011;76212;56.844;41.394;2024-03-23T12:39:22;22.50;;;12.45;;
85771;SDS011;76212;56.844;41.394;2024-03-23T12:41:49;20.48;;;11.20;;
85771;SDS011;76212;56.844;41.394;2024-03-23T12:44:15;16.73;;;10.70;;
85771;SDS011;76212;56.844;41.394;2024-03-23T12:46:42;20.75;;;12.00;;
85771;SDS011;76212;56.844;41.394;2024-03-23T12:49:08;24.98;;;14.27;;
85771;SDS011;76212;56.844;41.394;2024-03-23T12:51:34;19.80;;;11.73;;
85771;SDS011;76212;56.844;41.394;2024-03-23T12:54:01;20.17;;;11.20;;
85771;SDS011;76212;56.844;41.394;2024-03-23T12:56:28;20.88;;;12.77;;
85771;SDS011;76212;56.844;41.394;2024-03-23T12:58:55;22.27;;;12.55;;
85771;SDS011;76212;56.844;41.394;2024-03-23T13:01:23;27.35;;;15.43;;
85771;SDS011;76212;56.844;41.394;2024-03-23T13:03:49;21.50;;;12.27;;
85771;SDS011;76212;56.844;41.394;2024-03-23T13:06:17;19.65;;;11.98;;
85771;SDS011;76212;56.844;41.394;2024-03-23T13:08:47;23.35;;;14.25;;
85771;SDS011;76212;56.844;41.394;2024-03-23T13:11:15;23.38;;;15.20;;
85771;SDS011;76212;56.844;41.394;2024-03-23T13:13:41;23.92;;;13.60;;
85771;SDS011;76212;56.844;41.394;2024-03-23T13:16:08;29.42;;;15.00;;
85771;SDS011;76212;56.844;41.394;2024-03-23T13:18:34;24.85;;;13.85;;
85771;SDS011;76212;56.844;41.394;2024-03-23T13:21:00;26.80;;;14.98;;
85771;SDS011;76212;56.844;41.394;2024-03-23T13:23:28;28.88;;;14.60;;
85771;SDS011;76212;56.844;41.394;2024-03-23T13:25:55;27.20;;;14.38;;
85771;SDS011;76212;56.844;41.394;2024-03-23T13:28:22;33.25;;;19.60;;
85771;SDS011;76212;56.844;41.394;2024-03-23T13:30:52;28.58;;;16.15;;
85771;SDS011;76212;56.844;41.394;2024-03-23T13:33:22;29.02;;;14.90;;
85771;SDS011;76212;56.844;41.394;2024-03-23T13:35:57;28.48;;;16.13;;
85771;SDS011;76212;56.844;41.394;2024-03-23T13:38:24;27.45;;;15.10;;
85771;SDS011;76212;56.844;41.394;2024-03-23T13:40:54;32.78;;;17.40;;
85771;SDS011;76212;56.844;41.394;2024-03-23T13:43:22;29.23;;;14.75;;
85771;SDS011;76212;56.844;41.394;2024-03-23T13:45:58;33.88;;;17.25;;
85771;SDS011;76212;56.844;41.394;2024-03-23T13:48:26;34.25;;;15.75;;
85771;SDS011;76212;56.844;41.394;2024-03-23T13:51:04;32.80;;;16.27;;
85771;SDS011;76212;56.844;41.394;2024-03-23T13:53:32;35.45;;;17.17;;
85771;SDS011;76212;56.844;41.394;2024-03-23T13:55:59;34.05;;;16.77;;
85771;SDS011;76212;56.844;41.394;2024-03-23T13:58:25;29.65;;;15.10;;
85771;SDS011;76212;56.844;41.394;2024-03-23T14:00:52;31.50;;;16.02;;
85771;SDS011;76212;56.844;41.394;2024-03-23T14:03:18;32.40;;;17.42;;
85771;SDS011;76212;56.844;41.394;2024-03-23T14:05:45;34.58;;;17.65;;
85771;SDS011;76212;56.844;41.394;2024-03-23T14:08:13;31.17;;;17.35;;
85771;SDS011;76212;56.844;41.394;2024-03-23T14:10:40;43.08;;;21.05;;
85771;SDS011;76212;56.844;41.394;2024-03-23T14:13:07;38.10;;;17.67;;
85771;SDS011;76212;56.844;41.394;2024-03-23T14:15:33;33.00;;;16.52;;
85771;SDS011;76212;56.844;41.394;2024-03-23T14:17:59;33.58;;;17.85;;
85771;SDS011;76212;56.844;41.394;2024-03-23T14:20:26;31.38;;;17.00;;
85771;SDS011;76212;56.844;41.394;2024-03-23T14:22:52;36.55;;;17.17;;
85771;SDS011;76212;56.844;41.394;2024-03-23T14:25:19;29.55;;;17.13;;
85771;SDS011;76212;56.844;41.394;2024-03-23T14:27:46;40.22;;;16.60;;
85771;SDS011;76212;56.844;41.394;2024-03-23T14:30:12;30.67;;;16.38;;
85771;SDS011;76212;56.844;41.394;2024-03-23T14:32:39;38.63;;;18.55;;
85771;SDS011;76212;56.844;41.394;2024-03-23T14:35:06;34.92;;;17.30;;
85771;SDS011;76212;56.844;41.394;2024-03-23T14:37:38;39.92;;;17.65;;
85771;SDS011;76212;56.844;41.394;2024-03-23T14:40:08;32.85;;;17.00;;
85771;SDS011;76212;56.844;41.394;2024-03-23T14:42:34;33.28;;;17.65;;
85771;SDS011;76212;56.844;41.394;2024-03-23T14:45:01;33.10;;;17.67;;
85771;SDS011;76212;56.844;41.394;2024-03-23T14:47:27;32.97;;;16.02;;
85771;SDS011;76212;56.844;41.394;2024-03-23T14:49:54;39.72;;;18.48;;
85771;SDS011;76212;56.844;41.394;2024-03-23T14:52:20;36.65;;;17.55;;
85771;SDS011;76212;56.844;41.394;2024-03-23T14:54:47;39.17;;;18.92;;
85771;SDS011;76212;56.844;41.394;2024-03-23T14:57:13;39.25;;;18.42;;
85771;SDS011;76212;56.844;41.394;2024-03-23T14:59:39;39.67;;;19.70;;
85771;SDS011;76212;56.844;41.394;2024-03-23T15:02:06;32.03;;;17.77;;
85771;SDS011;76212;56.844;41.394;2024-03-23T15:04:33;36.65;;;16.85;;
85771;SDS011;76212;56.844;41.394;2024-03-23T15:07:00;37.53;;;18.73;;
85771;SDS011;76212;56.844;41.394;2024-03-23T15:09:27;37.58;;;18.83;;
85771;SDS011;76212;56.844;41.394;2024-03-23T15:11:53;44.45;;;19.15;;
85771;SDS011;76212;56.844;41.394;2024-03-23T15:14:23;41.20;;;20.27;;